TAF Text Data
IDs:
Format:
Raw Decoded Include METAR

Data at: 1741 UTC 03 Jul 2020

METAR for:KLBE (Latrobe/Palmer Rgnl, PA, US)
Text:KLBE 031653Z 30010KT 10SM FEW045 30/16 A3001
Temperature: 30.0°C ( 86°F)
Dewpoint: 16.0°C ( 61°F) [RH = 43%]
Pressure (altimeter):30.01 inches Hg (1016.3 mb)
Winds:from the WNW (300 degrees) at 12 MPH (10 knots; 5.1 m/s)
Visibility:10 or more sm (16+ km)
Ceiling:at least 12,000 feet AGL
Clouds: few clouds at 4500 feet AGL

TAF for:KLBE (Latrobe/Palmer Rgnl, PA, US) issued at 1721 UTC 03 Jul 2020
Text:KLBE 031721Z 0318/0418 29009KT P6SM SCT060
Forecast period:1800 UTC 03 July 2020 to 1800 UTC 04 July 2020
Forecast type:FROM: standard forecast or significant change
Winds:from the WNW (290 degrees) at 10 MPH (9 knots; 4.6 m/s)
Visibility:6 or more sm (10+ km)
Ceiling:at least 12,000 feet AGL
Clouds: scattered clouds at 6000 feet AGL